Time;durP1;ratioP1;P1;durP2;ratioP2;P2;SDS_P1;SDS_P2;PMS_P1;PMS_P2;Temp;Humidity;BMP_temperature;BMP_pressure;BME280_temperature;BME280_humidity;BME280_pressure;Samples;Min_cycle;Max_cycle;Signal;HPM_P1;HPM_P2
2023/04/30 00:01:41;;;;;;;13.27;4.28;;;5.60;99.90;;;;;;6187832;23;20008;-85
2023/04/30 00:04:07;;;;;;;12.18;4.70;;;6.00;99.90;;;;;;6187638;23;20091;-85
2023/04/30 00:06:32;;;;;;;12.18;4.45;;;5.60;99.90;;;;;;6186656;23;20088;-85
2023/04/30 00:08:58;;;;;;;16.73;5.00;;;6.00;99.90;;;;;;6162676;23;20327;-85
2023/04/30 00:11:24;;;;;;;11.23;4.70;;;5.50;99.90;;;;;;6187422;23;20016;-85
2023/04/30 00:13:50;;;;;;;15.13;4.70;;;5.50;99.90;;;;;;6213866;23;20027;-85
2023/04/30 00:16:16;;;;;;;9.48;4.10;;;5.50;99.90;;;;;;6214350;23;20009;-85
2023/04/30 00:18:42;;;;;;;12.00;4.10;;;5.40;99.90;;;;;;6214452;23;20046;-85
2023/04/30 00:21:08;;;;;;;11.23;4.25;;;5.40;99.90;;;;;;6213188;23;20468;-85
2023/04/30 00:23:33;;;;;;;12.00;4.55;;;5.40;99.90;;;;;;6214066;23;20009;-85
2023/04/30 00:25:59;;;;;;;14.05;4.93;;;5.40;99.90;;;;;;6187072;23;20009;-85
2023/04/30 00:28:25;;;;;;;13.15;4.88;;;5.40;99.90;;;;;;6187495;23;20129;-86
2023/04/30 00:30:50;;;;;;;17.27;5.72;;;5.80;99.90;;;;;;6189685;23;20012;-86
2023/04/30 00:33:16;;;;;;;6.25;4.25;;;5.30;99.90;;;;;;6186977;23;20116;-85
2023/04/30 00:35:41;;;;;;;11.20;4.68;;;5.30;99.90;;;;;;6186555;23;20016;-86
2023/04/30 00:38:07;;;;;;;13.60;5.20;;;5.30;99.90;;;;;;6214148;23;20092;-85
2023/04/30 00:40:34;;;;;;;12.95;4.70;;;5.30;99.90;;;;;;6214402;23;20017;-85
2023/04/30 00:43:00;;;;;;;12.30;5.47;;;5.20;99.90;;;;;;6187417;23;20383;-86
2023/04/30 00:45:25;;;;;;;9.55;4.97;;;5.20;99.90;;;;;;6187487;23;20009;-85
2023/04/30 00:47:51;;;;;;;9.40;4.13;;;5.20;99.90;;;;;;6214218;23;20067;-85
2023/04/30 00:50:17;;;;;;;11.02;4.43;;;5.20;99.90;;;;;;6162036;23;20013;-85
2023/04/30 00:52:43;;;;;;;14.82;5.10;;;5.20;99.90;;;;;;6187759;23;20122;-85
2023/04/30 00:55:11;;;;;;;13.63;4.90;;;5.10;99.90;;;;;;6186966;23;20516;-85
2023/04/30 00:57:38;;;;;;;9.07;4.40;;;5.30;99.90;;;;;;6186894;23;20083;-86
2023/04/30 01:00:09;;;;;;;12.52;5.10;;;5.00;99.90;;;;;;6188647;23;20092;-85
2023/04/30 01:02:38;;;;;;;12.40;4.80;;;5.00;99.90;;;;;;6163983;23;20358;-84
2023/04/30 01:05:05;;;;;;;12.48;5.68;;;4.90;99.90;;;;;;6188829;23;20392;-85
2023/04/30 01:07:32;;;;;;;14.27;5.82;;;4.90;99.90;;;;;;6188452;23;20017;-85
2023/04/30 01:09:57;;;;;;;11.35;4.63;;;4.90;99.90;;;;;;6215691;23;20386;-85
2023/04/30 01:12:42;;;;;;;13.40;5.57;;;4.90;99.90;;;;;;6163352;23;20017;-86
2023/04/30 01:15:27;;;;;;;13.85;5.75;;;4.90;99.90;;;;;;6215944;23;20036;-85
2023/04/30 01:18:30;;;;;;;17.40;5.55;;;5.80;99.90;;;;;;6189834;23;20012;-85
2023/04/30 01:21:01;;;;;;;13.93;5.53;;;4.80;99.90;;;;;;6153388;23;20017;-84
2023/04/30 01:24:00;;;;;;;11.57;4.97;;;4.80;99.90;;;;;;6189040;23;20040;-85
2023/04/30 01:26:52;;;;;;;15.85;5.70;;;4.70;99.90;;;;;;6188743;23;20013;-85
2023/04/30 01:29:19;;;;;;;15.18;5.65;;;4.70;99.90;;;;;;6188712;23;20119;-85
2023/04/30 01:31:45;;;;;;;15.63;5.10;;;4.70;99.90;;;;;;6215798;23;20015;-85
2023/04/30 01:34:10;;;;;;;12.32;5.70;;;5.10;99.90;;;;;;6188259;23;20091;-85
2023/04/30 01:37:15;;;;;;;17.40;6.50;;;4.70;99.90;;;;;;6215515;23;20004;-85
2023/04/30 01:40:07;;;;;;;12.18;5.70;;;4.70;99.90;;;;;;6188048;23;20051;-85
2023/04/30 01:43:03;;;;;;;14.70;5.88;;;4.60;99.90;;;;;;6188304;23;20335;-85
2023/04/30 01:45:59;;;;;;;12.90;5.90;;;4.60;99.90;;;;;;6149391;23;20347;-85
2023/04/30 01:48:39;;;;;;;15.88;6.55;;;4.60;99.90;;;;;;6188040;23;20016;-85
2023/04/30 01:51:13;;;;;;;10.98;5.95;;;4.60;99.90;;;;;;6188388;23;20017;-85
2023/04/30 01:53:41;;;;;;;13.60;5.93;;;4.60;99.90;;;;;;6215443;23;20355;-85
2023/04/30 01:56:20;;;;;;;14.38;6.80;;;4.60;99.90;;;;;;6188573;23;20024;-85
2023/04/30 01:58:47;;;;;;;8.45;5.22;;;4.50;99.90;;;;;;6188632;23;20016;-85
2023/04/30 02:01:30;;;;;;;11.07;5.90;;;4.50;99.90;;;;;;6188176;23;20098;-85
2023/04/30 02:03:56;;;;;;;14.20;6.53;;;4.50;99.90;;;;;;6214694;23;20012;-86
2023/04/30 02:06:27;;;;;;;14.98;7.53;;;4.40;99.90;;;;;;6164068;23;20005;-85
2023/04/30 02:08:54;;;;;;;17.90;7.22;;;4.80;99.90;;;;;;6189570;23;20031;-85
2023/04/30 02:11:19;;;;;;;16.50;7.65;;;4.40;99.90;;;;;;6164072;23;20440;-85
2023/04/30 02:13:45;;;;;;;15.13;5.90;;;4.40;99.90;;;;;;6189589;23;20019;-85
2023/04/30 02:16:11;;;;;;;11.30;5.60;;;4.40;99.90;;;;;;6189667;23;20288;-85
2023/04/30 02:18:36;;;;;;;12.57;6.32;;;5.40;99.90;;;;;;6164689;23;20023;-85
2023/04/30 02:21:02;;;;;;;14.80;6.82;;;4.80;99.90;;;;;;6164812;23;20143;-85
2023/04/30 02:23:28;;;;;;;13.10;5.78;;;4.30;99.90;;;;;;6189794;23;20083;-85
2023/04/30 02:25:53;;;;;;;13.90;6.57;;;4.80;99.90;;;;;;6190359;23;20262;-85
2023/04/30 02:28:19;;;;;;;16.90;6.97;;;4.30;99.90;;;;;;6191850;23;20375;-85
2023/04/30 02:30:44;;;;;;;14.02;7.50;;;5.00;99.90;;;;;;6163483;23;20079;-86
2023/04/30 02:33:11;;;;;;;17.55;7.18;;;3.80;99.90;;;;;;6187983;23;20100;-86
2023/04/30 02:35:39;;;;;;;14.93;7.32;;;5.20;99.90;;;;;;6163863;23;20014;-86
2023/04/30 02:38:05;;;;;;;14.43;7.18;;;5.10;99.90;;;;;;6163356;23;20013;-85
2023/04/30 02:40:31;;;;;;;17.17;7.30;;;4.40;99.90;;;;;;6163248;23;20096;-85
2023/04/30 02:42:57;;;;;;;12.50;7.03;;;3.70;99.90;;;;;;6187917;23;20340;-85
2023/04/30 02:45:23;;;;;;;16.90;7.47;;;4.40;99.90;;;;;;6188680;23;20035;-85
2023/04/30 02:47:49;;;;;;;15.18;7.07;;;5.00;99.90;;;;;;6215166;23;20016;-85
2023/04/30 02:50:14;;;;;;;15.73;6.93;;;4.30;99.90;;;;;;6163738;23;20016;-85
2023/04/30 02:52:40;;;;;;;14.65;7.40;;;4.60;99.90;;;;;;6163244;23;20095;-86
2023/04/30 02:55:06;;;;;;;15.50;7.40;;;4.40;99.90;;;;;;6163543;23;20012;-84
2023/04/30 02:57:32;;;;;;;13.73;6.57;;;4.40;99.90;;;;;;6163308;23;20120;-86
2023/04/30 02:59:57;;;;;;;15.00;6.55;;;4.40;99.90;;;;;;6188022;23;20439;-85
2023/04/30 03:02:23;;;;;;;19.92;7.13;;;4.30;99.90;;;;;;6162897;23;20051;-85
2023/04/30 03:04:49;;;;;;;13.75;6.60;;;4.40;99.90;;;;;;6214807;23;20011;-85
2023/04/30 03:07:15;;;;;;;12.77;6.28;;;4.30;99.90;;;;;;6187815;23;20020;-85
2023/04/30 03:09:40;;;;;;;17.13;7.70;;;4.30;99.90;;;;;;6163665;23;20040;-85
2023/04/30 03:12:06;;;;;;;14.88;7.47;;;4.30;99.90;;;;;;6188927;23;20027;-85
2023/04/30 03:14:32;;;;;;;11.75;6.45;;;4.30;99.90;;;;;;6189711;23;20032;-85
2023/04/30 03:16:57;;;;;;;10.98;6.45;;;4.30;99.90;;;;;;6188843;23;20080;-85
2023/04/30 03:19:24;;;;;;;20.52;7.68;;;4.60;99.90;;;;;;6163033;23;20017;-85
2023/04/30 03:21:52;;;;;;;13.18;7.40;;;4.30;99.90;;;;;;6162657;23;20039;-85
2023/04/30 03:24:18;;;;;;;15.65;7.38;;;4.30;99.90;;;;;;6214634;23;20005;-86
2023/04/30 03:26:44;;;;;;;15.82;8.40;;;4.80;99.90;;;;;;6187716;23;20060;-86
2023/04/30 03:29:10;;;;;;;12.43;7.47;;;4.40;99.90;;;;;;6187172;23;20067;-86
2023/04/30 03:31:36;;;;;;;19.52;9.13;;;4.40;99.90;;;;;;6214578;23;20024;-85
2023/04/30 03:34:01;;;;;;;17.63;8.52;;;5.30;99.90;;;;;;6163000;23;20024;-86
2023/04/30 03:36:27;;;;;;;18.92;8.90;;;4.90;99.90;;;;;;6187994;23;20013;-85
2023/04/30 03:38:53;;;;;;;14.48;9.07;;;4.40;99.90;;;;;;6188379;23;20071;-85
2023/04/30 03:41:18;;;;;;;17.85;8.52;;;5.40;99.90;;;;;;6216068;23;20009;-85
2023/04/30 03:43:45;;;;;;;14.32;7.85;;;4.40;99.90;;;;;;6187365;23;20012;-84
2023/04/30 03:46:10;;;;;;;17.08;9.20;;;5.20;99.90;;;;;;6189364;23;20019;-86
2023/04/30 03:48:36;;;;;;;14.18;8.23;;;5.20;99.90;;;;;;6187412;23;20005;-85
2023/04/30 03:51:02;;;;;;;17.70;9.35;;;4.80;99.90;;;;;;6187792;23;20066;-86
2023/04/30 03:53:27;;;;;;;16.75;8.73;;;4.40;99.90;;;;;;6187919;23;20431;-86
2023/04/30 03:55:53;;;;;;;18.20;9.23;;;5.50;99.90;;;;;;6187677;23;20020;-85
2023/04/30 03:58:20;;;;;;;13.93;8.45;;;5.30;99.90;;;;;;6162327;23;20309;-85
2023/04/30 04:00:47;;;;;;;20.10;9.27;;;4.50;99.90;;;;;;6213996;23;20513;-86
2023/04/30 04:03:15;;;;;;;17.25;9.80;;;4.60;99.90;;;;;;6187440;23;20012;-86
2023/04/30 04:05:41;;;;;;;21.08;10.32;;;4.60;99.90;;;;;;6187891;23;20058;-85
2023/04/30 04:08:07;;;;;;;19.88;9.25;;;4.50;99.90;;;;;;6188268;23;20012;-86
2023/04/30 04:10:34;;;;;;;17.25;10.40;;;5.20;99.90;;;;;;6188074;23;20012;-85
2023/04/30 04:13:00;;;;;;;15.75;8.73;;;5.50;99.90;;;;;;6189027;23;20027;-85
2023/04/30 04:15:25;;;;;;;16.00;9.23;;;4.60;99.90;;;;;;6163347;23;20013;-85
2023/04/30 04:17:51;;;;;;;19.63;10.70;;;4.60;99.90;;;;;;6187683;23;20359;-85
2023/04/30 04:20:17;;;;;;;20.65;10.68;;;5.10;99.90;;;;;;6214237;23;20013;-86
2023/04/30 04:22:43;;;;;;;16.52;9.23;;;4.60;99.90;;;;;;6187487;23;20092;-85
2023/04/30 04:25:09;;;;;;;18.15;10.13;;;4.50;99.90;;;;;;6187783;23;20009;-86
2023/04/30 04:27:35;;;;;;;14.35;9.07;;;4.70;99.90;;;;;;6162519;23;20066;-86
2023/04/30 04:30:02;;;;;;;19.95;10.40;;;4.70;99.90;;;;;;6187372;23;20099;-85
2023/04/30 04:32:29;;;;;;;20.38;10.27;;;4.60;99.90;;;;;;6163570;23;20092;-85
2023/04/30 04:34:55;;;;;;;18.52;10.90;;;4.60;99.90;;;;;;6192799;23;20013;-85
2023/04/30 04:37:21;;;;;;;18.13;9.60;;;5.60;99.90;;;;;;6165682;23;20073;-85
2023/04/30 04:39:47;;;;;;;18.48;10.07;;;5.50;99.90;;;;;;6164734;23;20067;-85
2023/04/30 04:42:15;;;;;;;15.55;9.38;;;4.80;99.90;;;;;;6216474;23;20009;-86
2023/04/30 04:44:41;;;;;;;21.50;11.10;;;4.80;99.90;;;;;;6165509;23;20048;-86
2023/04/30 04:47:07;;;;;;;16.50;11.20;;;4.80;99.90;;;;;;6165233;23;20017;-86
2023/04/30 04:49:33;;;;;;;18.35;10.43;;;4.80;99.90;;;;;;6165265;23;20017;-85
2023/04/30 04:51:58;;;;;;;19.10;11.18;;;5.30;99.90;;;;;;6165294;23;20013;-85
2023/04/30 04:54:24;;;;;;;19.05;11.75;;;5.10;99.90;;;;;;6192486;23;20012;-86
2023/04/30 04:56:50;;;;;;;18.23;10.48;;;4.90;99.90;;;;;;6164426;23;20019;-86
2023/04/30 04:59:17;;;;;;;18.17;10.65;;;5.00;99.90;;;;;;6189865;23;20012;-85
2023/04/30 05:01:43;;;;;;;19.15;11.63;;;5.80;99.90;;;;;;6165082;23;20012;-86
2023/04/30 05:04:09;;;;;;;15.55;10.50;;;5.30;99.90;;;;;;6164531;23;20009;-85
2023/04/30 05:06:35;;;;;;;15.13;10.93;;;5.00;99.90;;;;;;6190486;23;20008;-86
2023/04/30 05:09:01;;;;;;;16.50;10.93;;;5.10;99.90;;;;;;6219314;23;20063;-86
2023/04/30 05:11:27;;;;;;;19.52;11.05;;;6.00;99.90;;;;;;6165743;23;20019;-85
2023/04/30 05:13:52;;;;;;;17.27;11.48;;;5.30;99.90;;;;;;6191190;23;20056;-86
2023/04/30 05:16:19;;;;;;;20.52;12.32;;;5.40;99.90;;;;;;6219236;23;20024;-86
2023/04/30 05:18:45;;;;;;;19.20;12.30;;;5.50;99.90;;;;;;6168311;23;20067;-86
2023/04/30 05:21:10;;;;;;;19.15;12.48;;;5.80;99.90;;;;;;6189503;23;20009;-85
2023/04/30 05:23:36;;;;;;;18.17;12.65;;;6.10;99.90;;;;;;6164895;23;20009;-86
2023/04/30 05:26:02;;;;;;;21.77;13.57;;;5.70;99.90;;;;;;6193520;23;20367;-86
2023/04/30 05:28:28;;;;;;;19.05;12.45;;;5.80;99.90;;;;;;6189368;23;20062;-85
2023/04/30 05:30:53;;;;;;;22.65;11.02;;;6.10;99.90;;;;;;6189884;23;20020;-86
2023/04/30 05:33:19;;;;;;;19.55;10.10;;;6.70;99.90;;;;;;6220941;23;20066;-86
2023/04/30 05:35:45;;;;;;;20.88;10.30;;;7.30;99.90;;;;;;6164462;23;20497;-86
2023/04/30 05:38:10;;;;;;;16.27;8.23;;;8.10;99.90;;;;;;6174583;23;20021;-84
2023/04/30 05:40:36;;;;;;;17.55;8.00;;;8.90;99.90;;;;;;6194042;23;20064;-84
2023/04/30 05:43:02;;;;;;;12.70;6.50;;;9.40;99.90;;;;;;6137092;23;20013;-86
2023/04/30 05:45:28;;;;;;;17.17;6.63;;;9.80;99.90;;;;;;6161121;23;20051;-86
2023/04/30 05:47:54;;;;;;;12.27;6.40;;;9.20;99.90;;;;;;6170519;23;20028;-85
2023/04/30 05:50:20;;;;;;;13.80;6.15;;;9.10;99.90;;;;;;6147795;23;20068;-86
2023/04/30 05:52:45;;;;;;;20.17;6.15;;;8.80;99.90;;;;;;6137749;23;20017;-85
2023/04/30 05:55:11;;;;;;;17.15;6.38;;;8.60;99.90;;;;;;6159879;23;20009;-86
2023/04/30 05:57:37;;;;;;;18.73;6.43;;;8.60;99.90;;;;;;6159080;23;20336;-86
2023/04/30 06:00:05;;;;;;;13.43;5.60;;;8.60;99.90;;;;;;6160185;23;20041;-86
2023/04/30 06:02:31;;;;;;;17.30;6.13;;;8.40;99.90;;;;;;6159230;23;20009;-86
2023/04/30 06:04:56;;;;;;;15.73;5.60;;;8.40;99.90;;;;;;6138302;23;20017;-86
2023/04/30 06:07:22;;;;;;;21.52;6.55;;;8.40;99.90;;;;;;6189393;23;20013;-85
2023/04/30 06:09:48;;;;;;;14.25;6.13;;;8.30;99.90;;;;;;6134281;23;20056;-86
2023/04/30 06:12:14;;;;;;;15.57;5.40;;;8.60;99.90;;;;;;6158815;23;20090;-86
2023/04/30 06:14:44;;;;;;;14.07;5.80;;;8.70;99.90;;;;;;6165299;23;20020;-85
2023/04/30 06:17:10;;;;;;;14.20;5.20;;;9.00;99.90;;;;;;6162795;23;20013;-86
2023/04/30 06:19:37;;;;;;;17.23;6.15;;;8.90;99.90;;;;;;6159632;23;20005;-85
2023/04/30 06:22:03;;;;;;;14.82;5.40;;;9.60;99.90;;;;;;6187787;23;20009;-86
2023/04/30 06:24:29;;;;;;;18.58;6.10;;;8.60;99.90;;;;;;6136991;23;20054;-86
2023/04/30 06:26:55;;;;;;;17.75;4.97;;;9.00;99.90;;;;;;6136820;23;20028;-86
2023/04/30 06:29:23;;;;;;;14.90;5.30;;;9.20;99.90;;;;;;6161767;23;20013;-86
2023/04/30 06:31:50;;;;;;;15.25;5.07;;;9.50;99.90;;;;;;6160770;23;20073;-86
2023/04/30 06:34:16;;;;;;;13.05;4.53;;;10.80;99.90;;;;;;6135109;23;20447;-86
2023/04/30 06:36:41;;;;;;;11.07;4.35;;;12.30;99.90;;;;;;6158979;23;20092;-85
2023/04/30 06:39:07;;;;;;;9.68;4.35;;;13.50;99.90;;;;;;6159050;23;20440;-86
2023/04/30 06:41:33;;;;;;;12.40;3.65;;;14.40;99.90;;;;;;6185560;23;20047;-86
2023/04/30 06:43:58;;;;;;;9.48;3.80;;;14.90;99.90;;;;;;6159292;23;20017;-86
2023/04/30 06:46:24;;;;;;;14.63;3.90;;;15.70;99.90;;;;;;6186613;23;20172;-86
2023/04/30 06:48:49;;;;;;;14.32;4.80;;;16.00;99.90;;;;;;6185772;23;20013;-87
2023/04/30 06:51:15;;;;;;;10.18;3.78;;;16.20;99.90;;;;;;6185400;23;20072;-86
2023/04/30 06:53:41;;;;;;;11.25;3.50;;;15.70;99.90;;;;;;6158546;23;20013;-86
2023/04/30 06:56:07;;;;;;;8.93;3.55;;;14.90;99.90;;;;;;6133552;23;20017;-86
2023/04/30 06:58:32;;;;;;;9.32;3.67;;;14.40;99.90;;;;;;6158162;23;20013;-86
2023/04/30 07:00:58;;;;;;;12.25;3.58;;;13.70;99.90;;;;;;6135152;23;20088;-86
2023/04/30 07:03:24;;;;;;;17.83;3.78;;;13.50;99.90;;;;;;6135158;23;20009;-86
2023/04/30 07:05:50;;;;;;;18.85;4.38;;;13.30;99.90;;;;;;6185928;23;20008;-87
2023/04/30 07:08:16;;;;;;;12.73;3.63;;;12.70;99.90;;;;;;6158783;23;20015;-86
2023/04/30 07:10:42;;;;;;;14.82;3.90;;;12.50;99.90;;;;;;6134201;23;20067;-86
2023/04/30 07:13:07;;;;;;;13.50;3.60;;;12.40;99.90;;;;;;6133721;23;20009;-86
2023/04/30 07:15:33;;;;;;;9.73;3.15;;;12.40;99.90;;;;;;6133985;23;20009;-86
2023/04/30 07:17:59;;;;;;;15.05;3.95;;;12.40;99.90;;;;;;6133468;23;20014;-87
2023/04/30 07:20:25;;;;;;;12.20;3.47;;;12.20;99.90;;;;;;6159146;23;20085;-86
2023/04/30 07:22:51;;;;;;;10.52;3.22;;;12.20;99.90;;;;;;6158113;23;20023;-86
2023/04/30 07:25:17;;;;;;;13.15;3.30;;;11.90;99.90;;;;;;6185247;23;20013;-86
2023/04/30 07:27:43;;;;;;;12.13;4.00;;;12.10;99.90;;;;;;6133302;23;20475;-86
2023/04/30 07:30:09;;;;;;;12.93;3.40;;;12.00;99.90;;;;;;6158109;23;20075;-86
2023/04/30 07:32:36;;;;;;;13.88;3.75;;;11.90;99.90;;;;;;6133162;23;20017;-86
2023/04/30 07:35:03;;;;;;;15.95;3.60;;;11.90;99.90;;;;;;6184218;23;20013;-85
2023/04/30 07:37:28;;;;;;;18.55;4.15;;;11.60;99.90;;;;;;6157723;23;20014;-85
2023/04/30 07:39:54;;;;;;;14.75;3.58;;;11.70;99.90;;;;;;6157772;23;20013;-86
2023/04/30 07:42:20;;;;;;;17.08;3.67;;;12.00;99.90;;;;;;6158011;23;20031;-86
2023/04/30 07:44:47;;;;;;;15.13;3.90;;;12.10;99.90;;;;;;6157714;23;20009;-86
2023/04/30 07:47:13;;;;;;;15.95;4.00;;;12.00;99.90;;;;;;6133040;23;20016;-86
2023/04/30 07:49:39;;;;;;;11.65;3.72;;;12.00;99.90;;;;;;6133594;23;20020;-87
2023/04/30 07:52:05;;;;;;;12.27;3.72;;;12.10;99.90;;;;;;6157306;23;20013;-86
2023/04/30 07:54:30;;;;;;;14.52;3.78;;;12.60;99.90;;;;;;6158742;23;20059;-86
2023/04/30 07:56:56;;;;;;;14.43;3.40;;;13.00;99.90;;;;;;6184326;23;20079;-86
2023/04/30 07:59:23;;;;;;;13.95;3.75;;;13.20;99.90;;;;;;6158029;23;20392;-85
2023/04/30 08:01:50;;;;;;;18.15;4.30;;;13.00;99.90;;;;;;6184169;23;20020;-85
2023/04/30 08:04:15;;;;;;;14.75;3.20;;;12.90;99.90;;;;;;6133636;23;20479;-85
2023/04/30 08:06:41;;;;;;;10.95;3.20;;;12.80;99.90;;;;;;6156990;23;20021;-85
2023/04/30 08:09:07;;;;;;;9.20;2.85;;;13.60;99.90;;;;;;6157041;23;20017;-84
2023/04/30 08:11:33;;;;;;;12.02;3.55;;;13.70;99.90;;;;;;6132721;23;20020;-85
2023/04/30 08:13:59;;;;;;;11.98;4.30;;;14.20;99.90;;;;;;6157340;23;20428;-85
2023/04/30 08:16:25;;;;;;;10.35;3.72;;;14.10;99.90;;;;;;6157889;23;20010;-85
2023/04/30 08:18:50;;;;;;;12.00;3.50;;;13.70;99.90;;;;;;6158058;23;20498;-85
2023/04/30 08:21:17;;;;;;;13.77;3.90;;;13.90;99.90;;;;;;6156956;23;20005;-85
2023/04/30 08:23:43;;;;;;;10.73;3.55;;;14.00;99.90;;;;;;6132931;23;20139;-86
2023/04/30 08:26:08;;;;;;;9.60;3.17;;;14.10;99.90;;;;;;6184378;23;20017;-85
2023/04/30 08:28:34;;;;;;;12.38;3.15;;;13.50;99.90;;;;;;6133073;23;20024;-85
2023/04/30 08:31:00;;;;;;;13.10;3.50;;;13.80;99.90;;;;;;6157642;23;20074;-85
2023/04/30 08:33:25;;;;;;;12.98;3.20;;;13.70;99.90;;;;;;6157512;23;20017;-85
2023/04/30 08:35:51;;;;;;;13.02;3.75;;;13.50;99.90;;;;;;6132066;23;20013;-85
2023/04/30 08:38:17;;;;;;;9.48;3.25;;;13.00;99.90;;;;;;6184066;23;20044;-85
2023/04/30 08:40:47;;;;;;;11.98;4.43;;;13.00;99.90;;;;;;6157936;23;20013;-84
2023/04/30 08:43:14;;;;;;;9.73;3.42;;;13.20;99.90;;;;;;6133022;23;20013;-85
2023/04/30 08:45:40;;;;;;;12.60;3.67;;;13.60;99.90;;;;;;6132519;23;20013;-84
2023/04/30 08:48:09;;;;;;;9.60;3.00;;;13.60;99.90;;;;;;6156723;23;20013;-86
2023/04/30 08:50:35;;;;;;;11.85;3.20;;;13.80;99.90;;;;;;6158076;23;20037;-85
2023/04/30 08:53:02;;;;;;;8.88;3.30;;;14.20;99.90;;;;;;6156854;23;20020;-85
2023/04/30 08:55:29;;;;;;;11.73;3.00;;;14.50;99.90;;;;;;6157504;23;20016;-85
2023/04/30 08:57:54;;;;;;;13.43;3.35;;;15.10;99.90;;;;;;6183529;23;20466;-85
2023/04/30 09:00:20;;;;;;;12.32;2.92;;;15.30;99.90;;;;;;6133354;23;20048;-85
2023/04/30 09:02:48;;;;;;;8.02;2.50;;;15.50;99.90;;;;;;6156773;23;20044;-85
2023/04/30 09:05:14;;;;;;;11.65;3.70;;;15.20;99.90;;;;;;6157132;23;20072;-85
2023/04/30 09:07:42;;;;;;;9.63;3.22;;;15.50;99.90;;;;;;6156796;23;20017;-85
2023/04/30 09:10:16;;;;;;;13.18;3.53;;;15.40;99.90;;;;;;6157147;23;20070;-85
2023/04/30 09:12:44;;;;;;;8.88;2.88;;;14.80;99.90;;;;;;6132288;23;20017;-84
2023/04/30 09:15:11;;;;;;;9.85;3.10;;;15.10;99.90;;;;;;6157085;23;20076;-85
2023/04/30 09:17:37;;;;;;;8.10;2.90;;;14.60;99.90;;;;;;6156620;23;20021;-85
2023/04/30 09:20:13;;;;;;;13.07;3.38;;;14.50;99.90;;;;;;6158371;23;20009;-83
2023/04/30 09:22:41;;;;;;;11.75;3.17;;;14.50;99.90;;;;;;6158328;23;20040;-85
2023/04/30 09:25:07;;;;;;;9.88;3.10;;;14.60;99.90;;;;;;6185451;23;20008;-85
2023/04/30 09:27:33;;;;;;;9.40;2.90;;;14.70;99.90;;;;;;6133768;23;20084;-85
2023/04/30 09:29:59;;;;;;;9.82;3.17;;;14.90;99.90;;;;;;6133969;23;20067;-85
2023/04/30 09:32:25;;;;;;;8.00;2.80;;;14.80;99.90;;;;;;6133570;23;20009;-85
2023/04/30 09:34:51;;;;;;;12.02;3.28;;;14.80;99.90;;;;;;6133702;23;20112;-85
2023/04/30 09:37:16;;;;;;;7.72;2.55;;;14.60;99.90;;;;;;6159091;23;20518;-85
2023/04/30 09:39:50;;;;;;;10.32;2.72;;;14.60;99.90;;;;;;6133967;23;20040;-85
2023/04/30 09:42:17;;;;;;;10.43;3.05;;;14.50;99.90;;;;;;6133557;23;20009;-86
2023/04/30 09:44:43;;;;;;;6.25;2.72;;;14.30;99.90;;;;;;6158279;23;20076;-85
2023/04/30 09:47:17;;;;;;;8.07;2.75;;;14.70;99.90;;;;;;6132972;23;20055;-85
2023/04/30 09:49:47;;;;;;;9.88;2.75;;;14.90;99.90;;;;;;6133613;23;20051;-85
2023/04/30 09:52:14;;;;;;;9.45;2.90;;;15.20;99.90;;;;;;6184704;23;20076;-85
2023/04/30 09:54:42;;;;;;;9.95;2.95;;;15.10;99.90;;;;;;6133988;23;20012;-85
2023/04/30 09:57:10;;;;;;;11.93;2.90;;;15.20;99.40;;;;;;6157837;23;20032;-85
2023/04/30 09:59:38;;;;;;;10.90;3.35;;;15.10;99.90;;;;;;6185003;23;20080;-84
2023/04/30 10:02:06;;;;;;;12.50;3.20;;;15.10;99.90;;;;;;6157338;23;20019;-85
2023/04/30 10:04:40;;;;;;;12.52;3.25;;;15.10;99.90;;;;;;6133779;23;20009;-85
2023/04/30 10:07:20;;;;;;;10.85;3.22;;;15.20;99.90;;;;;;6184693;23;20087;-85
2023/04/30 10:09:53;;;;;;;8.27;2.97;;;15.30;99.90;;;;;;6184578;23;20017;-85
2023/04/30 10:12:23;;;;;;;10.05;3.08;;;15.40;99.60;;;;;;6132776;23;20068;-85
2023/04/30 10:15:05;;;;;;;7.18;3.08;;;15.30;99.90;;;;;;6157949;23;20024;-85
2023/04/30 10:17:39;;;;;;;10.90;3.33;;;15.50;99.90;;;;;;6132809;23;20009;-85
2023/04/30 10:20:08;;;;;;;8.85;3.50;;;15.70;99.90;;;;;;6158309;23;20005;-86
2023/04/30 10:22:35;;;;;;;9.68;3.20;;;15.40;99.10;;;;;;6157761;23;20009;-85
2023/04/30 10:25:01;;;;;;;8.82;3.40;;;15.10;99.70;;;;;;6133525;23;20013;-86
2023/04/30 10:27:29;;;;;;;7.28;3.20;;;15.00;99.80;;;;;;6185882;23;20017;-85
2023/04/30 10:29:54;;;;;;;11.20;3.40;;;15.00;99.90;;;;;;6158947;23;20016;-85
2023/04/30 10:32:22;;;;;;;10.90;3.53;;;15.10;99.90;;;;;;6159563;23;20451;-85
2023/04/30 10:35:06;;;;;;;11.15;3.50;;;15.20;99.90;;;;;;6135248;23;20112;-84
2023/04/30 10:37:44;;;;;;;12.02;3.85;;;15.40;99.90;;;;;;6133825;23;20072;-84
2023/04/30 10:40:10;;;;;;;10.93;3.03;;;15.60;99.70;;;;;;6184743;23;20036;-85
2023/04/30 10:42:35;;;;;;;9.25;3.55;;;15.40;99.80;;;;;;6158018;23;20027;-85
2023/04/30 10:45:05;;;;;;;7.57;3.00;;;15.40;99.30;;;;;;6157211;23;20016;-85
2023/04/30 10:47:31;;;;;;;7.95;3.40;;;15.50;99.40;;;;;;6133307;23;20013;-85
2023/04/30 10:50:03;;;;;;;9.65;3.67;;;15.30;98.80;;;;;;6158269;23;20139;-86
2023/04/30 10:52:29;;;;;;;8.52;3.40;;;15.10;99.20;;;;;;6158446;23;20005;-85
2023/04/30 10:54:55;;;;;;;9.63;3.13;;;15.10;99.90;;;;;;6133172;23;20028;-84
2023/04/30 10:57:21;;;;;;;9.95;3.60;;;15.10;99.90;;;;;;6133376;23;20017;-85
2023/04/30 11:00:15;;;;;;;6.10;2.90;;;15.30;99.90;;;;;;6157197;23;20131;-86
2023/04/30 11:02:47;;;;;;;10.27;3.63;;;15.40;99.90;;;;;;6132687;23;20048;-85
2023/04/30 11:05:14;;;;;;;8.07;3.55;;;15.40;98.80;;;;;;6133218;23;20022;-85
2023/04/30 11:07:57;;;;;;;8.13;3.45;;;15.10;99.20;;;;;;6157706;23;20376;-85
2023/04/30 11:10:26;;;;;;;11.43;3.80;;;15.20;99.20;;;;;;6157652;23;20399;-85
2023/04/30 11:12:54;;;;;;;7.43;3.75;;;15.10;99.90;;;;;;6132355;23;20021;-85
2023/04/30 11:15:24;;;;;;;8.80;3.53;;;15.20;99.90;;;;;;6156789;23;20115;-85
2023/04/30 11:17:50;;;;;;;6.78;3.10;;;15.10;99.90;;;;;;6157543;23;20013;-85
2023/04/30 11:20:22;;;;;;;7.63;3.20;;;15.10;99.90;;;;;;6157364;23;20092;-85
2023/04/30 11:22:47;;;;;;;8.00;3.40;;;15.00;99.90;;;;;;6183612;23;20017;-85
2023/04/30 11:25:18;;;;;;;11.82;3.95;;;15.00;99.90;;;;;;6133194;23;20052;-85
2023/04/30 11:27:44;;;;;;;9.57;3.90;;;15.10;99.80;;;;;;6183819;23;20039;-85
2023/04/30 11:30:15;;;;;;;7.43;3.30;;;15.00;99.40;;;;;;6157393;23;20085;-85
2023/04/30 11:32:46;;;;;;;8.60;4.63;;;15.00;99.90;;;;;;6132887;23;20020;-86
2023/04/30 11:35:16;;;;;;;10.13;3.72;;;15.10;99.90;;;;;;6183588;23;20447;-85
2023/04/30 11:37:43;;;;;;;9.38;3.90;;;15.40;99.90;;;;;;6157650;23;20095;-85
2023/04/30 11:40:11;;;;;;;8.68;3.70;;;15.50;99.90;;;;;;6157888;23;20009;-85
2023/04/30 11:42:38;;;;;;;8.82;4.05;;;15.50;99.90;;;;;;6183128;23;20580;-85
2023/04/30 11:45:16;;;;;;;9.18;4.03;;;15.60;99.20;;;;;;6157341;23;20097;-85
2023/04/30 11:47:52;;;;;;;9.23;3.65;;;15.40;99.00;;;;;;6132995;23;20028;-85
2023/04/30 11:50:26;;;;;;;10.55;3.85;;;15.60;99.80;;;;;;6157778;23;20044;-84
2023/04/30 11:52:53;;;;;;;6.43;3.63;;;15.80;99.90;;;;;;6133289;23;20016;-84
2023/04/30 11:55:21;;;;;;;8.00;4.07;;;16.00;98.80;;;;;;6157832;23;20092;-85
2023/04/30 11:57:53;;;;;;;5.43;3.45;;;15.90;99.70;;;;;;6132274;23;20021;-84
2023/04/30 12:00:20;;;;;;;7.60;3.13;;;15.80;99.10;;;;;;6184336;23;20005;-84
2023/04/30 12:02:48;;;;;;;6.40;3.05;;;15.70;99.40;;;;;;6133504;23;20049;-86
2023/04/30 12:05:22;;;;;;;8.93;3.60;;;15.60;99.90;;;;;;6184043;23;20013;-85
2023/04/30 12:08:08;;;;;;;7.13;3.53;;;15.70;99.90;;;;;;6157662;23;20380;-85
2023/04/30 12:10:34;;;;;;;7.88;3.38;;;15.60;99.50;;;;;;6158122;23;20013;-85
2023/04/30 12:13:01;;;;;;;8.52;3.58;;;15.80;99.90;;;;;;6156651;23;20020;-86
2023/04/30 12:15:27;;;;;;;8.27;3.67;;;15.90;99.90;;;;;;6132824;23;20238;-85
2023/04/30 12:18:09;;;;;;;7.85;3.50;;;16.00;99.80;;;;;;6157039;23;20413;-86
2023/04/30 12:20:36;;;;;;;6.90;4.10;;;15.90;98.90;;;;;;6156387;23;20020;-85
2023/04/30 12:23:02;;;;;;;8.10;3.80;;;16.00;99.10;;;;;;6132440;23;20111;-85
2023/04/30 12:25:28;;;;;;;7.45;3.15;;;16.00;99.40;;;;;;6156820;23;20160;-85
2023/04/30 12:27:53;;;;;;;6.32;3.78;;;16.10;99.50;;;;;;6131593;23;20094;-84
2023/04/30 12:30:25;;;;;;;7.55;3.55;;;15.80;99.00;;;;;;6132500;23;20033;-85
2023/04/30 12:32:53;;;;;;;7.10;3.95;;;15.90;99.90;;;;;;6157958;23;20017;-85
2023/04/30 12:35:20;;;;;;;6.32;4.20;;;15.80;99.90;;;;;;6133054;23;20036;-86
2023/04/30 12:38:00;;;;;;;9.52;3.97;;;15.70;99.60;;;;;;6132237;23;20040;-85
2023/04/30 12:40:27;;;;;;;8.15;4.70;;;15.80;99.30;;;;;;6156837;23;20041;-84
2023/04/30 12:43:08;;;;;;;8.30;4.45;;;15.80;99.90;;;;;;6183329;23;20333;-85
2023/04/30 12:46:01;;;;;;;6.70;3.53;;;15.80;99.40;;;;;;6133188;23;20005;-85
2023/04/30 12:48:27;;;;;;;6.17;3.63;;;16.10;99.90;;;;;;6154947;23;20021;-86